Terminal Aerodrome Forecast
Issued by NWS Memphis, TN

Home | Current Version | Previous Version | Text Only | Print | Product List | Glossary On
Versions: 1 2 3 4 5 6 7 8 9 10 11 12 13 14 15 16 17 18 19 20
000
FTUS44 KMEG 281746
TAFJBR
TAF
KJBR 281746Z 2818/2918 02005KT P6SM VCSH OVC013
     FM282000 36007KT P6SM OVC015
     FM290300 36006KT P6SM OVC009
     FM290800 03005KT P6SM FEW009 BKN030
     FM291600 05006KT P6SM BKN100=

USA.gov is the U.S. government's official web portal to all federal, state and local government web resources and services.